ROMMA est une association bénévole à but non lucratif. Votre soutien est indispensable : ADHERER à ROMMA ou FAIRE un DON

St-Etienne-du-Bois - (01, Ain)

La Bresse (243 m)   Longitude: 5° 16' 47'' E   Latitude: 46° 17' 46'' N Station partenaire n°17
 

Détail journalier du     <<     >>

Température Precipitation Humidité Pression Vent Dir Rafale Dir. rafale Ensol.
Heure (°C) (mm) (%) (hPa) (km/h) (km/h) (min)
01:00 9.50.2949979SSO24S0
02:00 9.80939968SSO23SSO0
03:00 9.60929967SSO26SSO0
04:00 10.208899610SSO29S0
05:00 9.90.49199512SSO32SSO0
06:00 10.608899514SSO37SSO0
07:00 9.80.69199516SSO40SSO0
08:00 10.30.28999514SSO34S0
09:00 10.908799418SSO52SSO0
10:00 10.619299519SSO50SSO0
11:00 11.609199519SSO44S5
12:00 12.408999522SSO52SSO15
13:00 13.608599520SSO45SSO10
14:00 14.208399419SSO47S45
15:00 13.908699519SSO45S5
16:00 12.819499513SSO44SSO0
17:00 13.20909959SSO31SSO25
18:00 13.208899615SSO29S0
19:00 13.308599614SSO31OSO0
20:00 12.808999710SSO27SO0
21:00 12.20909976SSO21SSO0
22:00 12.30849988SSO23S0
23:00 10.209099806SO0
minuit 8.60949981SO6SO0

Graphique du 04-11-2019

 

Serveur OMMA